sensor_id;sensor_type;location;lat;lon;timestamp;P1;durP1;ratioP1;P2;durP2;ratioP2
74227;SDS011;62587;52.352;5.006;2023-02-28T00:00:50;3.47;;;0.93;;
74227;SDS011;62587;52.352;5.006;2023-02-28T00:03:15;3.10;;;1.00;;
74227;SDS011;62587;52.352;5.006;2023-02-28T00:05:41;3.65;;;1.00;;
74227;SDS011;62587;52.352;5.006;2023-02-28T00:08:06;5.38;;;0.88;;
74227;SDS011;62587;52.352;5.006;2023-02-28T00:10:32;3.45;;;0.90;;
74227;SDS011;62587;52.352;5.006;2023-02-28T00:12:59;4.70;;;1.00;;
74227;SDS011;62587;52.352;5.006;2023-02-28T00:15:27;3.70;;;0.90;;
74227;SDS011;62587;52.352;5.006;2023-02-28T00:17:52;4.10;;;1.00;;
74227;SDS011;62587;52.352;5.006;2023-02-28T00:20:18;3.30;;;0.98;;
74227;SDS011;62587;52.352;5.006;2023-02-28T00:22:45;3.72;;;1.30;;
74227;SDS011;62587;52.352;5.006;2023-02-28T00:27:39;3.83;;;0.90;;
74227;SDS011;62587;52.352;5.006;2023-02-28T00:30:06;2.90;;;1.00;;
74227;SDS011;62587;52.352;5.006;2023-02-28T00:32:33;3.72;;;0.77;;
74227;SDS011;62587;52.352;5.006;2023-02-28T00:34:59;3.13;;;0.85;;
74227;SDS011;62587;52.352;5.006;2023-02-28T00:37:25;5.53;;;1.38;;
74227;SDS011;62587;52.352;5.006;2023-02-28T00:39:50;3.90;;;1.20;;
74227;SDS011;62587;52.352;5.006;2023-02-28T00:42:16;3.45;;;1.13;;
74227;SDS011;62587;52.352;5.006;2023-02-28T00:44:41;2.13;;;0.75;;
74227;SDS011;62587;52.352;5.006;2023-02-28T00:47:06;2.40;;;0.83;;
74227;SDS011;62587;52.352;5.006;2023-02-28T00:49:32;1.98;;;1.10;;
74227;SDS011;62587;52.352;5.006;2023-02-28T00:51:57;5.18;;;1.02;;
74227;SDS011;62587;52.352;5.006;2023-02-28T00:54:23;2.60;;;0.95;;
74227;SDS011;62587;52.352;5.006;2023-02-28T00:56:49;1.75;;;0.82;;
74227;SDS011;62587;52.352;5.006;2023-02-28T00:59:16;2.78;;;0.80;;
74227;SDS011;62587;52.352;5.006;2023-02-28T01:01:42;2.20;;;1.00;;
74227;SDS011;62587;52.352;5.006;2023-02-28T01:04:08;2.67;;;0.95;;
74227;SDS011;62587;52.352;5.006;2023-02-28T01:06:34;3.20;;;0.85;;
74227;SDS011;62587;52.352;5.006;2023-02-28T01:08:59;2.95;;;0.80;;
74227;SDS011;62587;52.352;5.006;2023-02-28T01:11:25;1.85;;;1.05;;
74227;SDS011;62587;52.352;5.006;2023-02-28T01:13:50;2.70;;;1.02;;
74227;SDS011;62587;52.352;5.006;2023-02-28T01:16:16;2.42;;;0.90;;
74227;SDS011;62587;52.352;5.006;2023-02-28T01:18:42;2.15;;;0.75;;
74227;SDS011;62587;52.352;5.006;2023-02-28T01:21:10;2.45;;;0.90;;
74227;SDS011;62587;52.352;5.006;2023-02-28T01:23:38;2.58;;;1.13;;
74227;SDS011;62587;52.352;5.006;2023-02-28T01:26:05;2.08;;;1.00;;
74227;SDS011;62587;52.352;5.006;2023-02-28T01:28:35;1.98;;;1.00;;
74227;SDS011;62587;52.352;5.006;2023-02-28T01:31:01;2.05;;;0.70;;
74227;SDS011;62587;52.352;5.006;2023-02-28T01:33:27;1.98;;;0.98;;
74227;SDS011;62587;52.352;5.006;2023-02-28T01:36:03;2.42;;;0.95;;
74227;SDS011;62587;52.352;5.006;2023-02-28T01:38:31;2.63;;;0.93;;
74227;SDS011;62587;52.352;5.006;2023-02-28T01:40:58;4.38;;;0.90;;
74227;SDS011;62587;52.352;5.006;2023-02-28T01:43:27;2.40;;;0.70;;
74227;SDS011;62587;52.352;5.006;2023-02-28T01:45:58;2.47;;;0.80;;
74227;SDS011;62587;52.352;5.006;2023-02-28T01:48:31;2.10;;;0.90;;
74227;SDS011;62587;52.352;5.006;2023-02-28T01:51:01;2.15;;;0.70;;
74227;SDS011;62587;52.352;5.006;2023-02-28T01:53:36;3.38;;;0.90;;
74227;SDS011;62587;52.352;5.006;2023-02-28T01:56:06;3.00;;;1.00;;
74227;SDS011;62587;52.352;5.006;2023-02-28T01:58:34;4.28;;;1.02;;
74227;SDS011;62587;52.352;5.006;2023-02-28T02:01:01;2.33;;;1.10;;
74227;SDS011;62587;52.352;5.006;2023-02-28T02:03:28;3.03;;;1.08;;
74227;SDS011;62587;52.352;5.006;2023-02-28T02:05:55;1.33;;;0.70;;
74227;SDS011;62587;52.352;5.006;2023-02-28T02:08:24;1.80;;;0.98;;
74227;SDS011;62587;52.352;5.006;2023-02-28T02:10:57;3.95;;;1.00;;
74227;SDS011;62587;52.352;5.006;2023-02-28T02:19:07;2.13;;;0.88;;
74227;SDS011;62587;52.352;5.006;2023-02-28T02:27:20;3.38;;;1.20;;
74227;SDS011;62587;52.352;5.006;2023-02-28T02:30:05;3.28;;;1.05;;
74227;SDS011;62587;52.352;5.006;2023-02-28T02:38:37;1.35;;;0.73;;
74227;SDS011;62587;52.352;5.006;2023-02-28T02:43:48;2.05;;;0.90;;
74227;SDS011;62587;52.352;5.006;2023-02-28T02:46:24;2.15;;;1.10;;
74227;SDS011;62587;52.352;5.006;2023-02-28T02:48:54;3.13;;;1.00;;
74227;SDS011;62587;52.352;5.006;2023-02-28T02:51:21;2.30;;;0.95;;
74227;SDS011;62587;52.352;5.006;2023-02-28T02:53:49;1.88;;;0.90;;
74227;SDS011;62587;52.352;5.006;2023-02-28T02:56:33;3.65;;;1.58;;
74227;SDS011;62587;52.352;5.006;2023-02-28T02:59:01;1.98;;;1.30;;
74227;SDS011;62587;52.352;5.006;2023-02-28T03:01:31;2.08;;;1.40;;
74227;SDS011;62587;52.352;5.006;2023-02-28T03:04:21;2.38;;;0.93;;
74227;SDS011;62587;52.352;5.006;2023-02-28T03:06:47;2.78;;;1.17;;
74227;SDS011;62587;52.352;5.006;2023-02-28T03:09:12;1.23;;;0.80;;
74227;SDS011;62587;52.352;5.006;2023-02-28T03:11:38;2.80;;;0.90;;
74227;SDS011;62587;52.352;5.006;2023-02-28T03:26:57;1.77;;;0.98;;
74227;SDS011;62587;52.352;5.006;2023-02-28T03:29:38;1.80;;;0.82;;
74227;SDS011;62587;52.352;5.006;2023-02-28T03:35:37;1.98;;;1.23;;
74227;SDS011;62587;52.352;5.006;2023-02-28T03:38:11;2.10;;;1.13;;
74227;SDS011;62587;52.352;5.006;2023-02-28T03:40:45;2.85;;;1.10;;
74227;SDS011;62587;52.352;5.006;2023-02-28T03:43:21;2.55;;;1.00;;
74227;SDS011;62587;52.352;5.006;2023-02-28T03:45:50;2.28;;;1.02;;
74227;SDS011;62587;52.352;5.006;2023-02-28T03:48:19;2.00;;;1.10;;
74227;SDS011;62587;52.352;5.006;2023-02-28T03:50:51;2.55;;;1.02;;
74227;SDS011;62587;52.352;5.006;2023-02-28T03:56:02;2.25;;;1.00;;
74227;SDS011;62587;52.352;5.006;2023-02-28T03:58:44;2.30;;;1.08;;
74227;SDS011;62587;52.352;5.006;2023-02-28T04:01:35;2.38;;;1.20;;
74227;SDS011;62587;52.352;5.006;2023-02-28T04:04:06;2.20;;;1.17;;
74227;SDS011;62587;52.352;5.006;2023-02-28T04:06:33;1.70;;;1.20;;
74227;SDS011;62587;52.352;5.006;2023-02-28T04:08:59;2.13;;;1.13;;
74227;SDS011;62587;52.352;5.006;2023-02-28T04:14:01;2.00;;;1.00;;
74227;SDS011;62587;52.352;5.006;2023-02-28T04:16:28;2.63;;;1.23;;
74227;SDS011;62587;52.352;5.006;2023-02-28T04:18:54;1.70;;;1.10;;
74227;SDS011;62587;52.352;5.006;2023-02-28T04:21:27;2.22;;;1.08;;
74227;SDS011;62587;52.352;5.006;2023-02-28T04:24:00;2.45;;;1.17;;
74227;SDS011;62587;52.352;5.006;2023-02-28T04:26:32;2.05;;;1.05;;
74227;SDS011;62587;52.352;5.006;2023-02-28T04:28:59;3.17;;;1.40;;
74227;SDS011;62587;52.352;5.006;2023-02-28T04:31:25;1.52;;;0.85;;
74227;SDS011;62587;52.352;5.006;2023-02-28T04:33:50;2.58;;;1.38;;
74227;SDS011;62587;52.352;5.006;2023-02-28T04:36:16;2.00;;;1.30;;
74227;SDS011;62587;52.352;5.006;2023-02-28T04:43:36;1.63;;;1.15;;
74227;SDS011;62587;52.352;5.006;2023-02-28T04:46:02;2.08;;;1.23;;
74227;SDS011;62587;52.352;5.006;2023-02-28T04:48:29;3.15;;;1.85;;
74227;SDS011;62587;52.352;5.006;2023-02-28T04:50:59;2.00;;;1.30;;
74227;SDS011;62587;52.352;5.006;2023-02-28T04:53:29;2.67;;;1.15;;
74227;SDS011;62587;52.352;5.006;2023-02-28T04:55:55;2.20;;;1.35;;
74227;SDS011;62587;52.352;5.006;2023-02-28T04:58:21;3.42;;;1.15;;
74227;SDS011;62587;52.352;5.006;2023-02-28T05:00:49;2.75;;;1.40;;
74227;SDS011;62587;52.352;5.006;2023-02-28T05:03:15;2.55;;;1.50;;
74227;SDS011;62587;52.352;5.006;2023-02-28T05:05:40;3.20;;;1.35;;
74227;SDS011;62587;52.352;5.006;2023-02-28T05:08:05;2.77;;;1.37;;
74227;SDS011;62587;52.352;5.006;2023-02-28T05:10:31;2.30;;;1.30;;
74227;SDS011;62587;52.352;5.006;2023-02-28T05:12:57;2.10;;;1.30;;
74227;SDS011;62587;52.352;5.006;2023-02-28T05:15:22;3.00;;;1.70;;
74227;SDS011;62587;52.352;5.006;2023-02-28T05:17:47;3.22;;;1.20;;
74227;SDS011;62587;52.352;5.006;2023-02-28T05:20:13;2.53;;;1.70;;
74227;SDS011;62587;52.352;5.006;2023-02-28T05:22:38;2.00;;;1.55;;
74227;SDS011;62587;52.352;5.006;2023-02-28T05:25:04;2.75;;;1.50;;
74227;SDS011;62587;52.352;5.006;2023-02-28T05:27:30;3.95;;;1.80;;
74227;SDS011;62587;52.352;5.006;2023-02-28T05:29:56;3.30;;;1.40;;
74227;SDS011;62587;52.352;5.006;2023-02-28T05:32:22;2.17;;;1.42;;
74227;SDS011;62587;52.352;5.006;2023-02-28T05:34:47;2.33;;;1.33;;
74227;SDS011;62587;52.352;5.006;2023-02-28T05:37:13;1.97;;;1.47;;
74227;SDS011;62587;52.352;5.006;2023-02-28T05:39:39;1.90;;;1.70;;
74227;SDS011;62587;52.352;5.006;2023-02-28T05:42:04;2.72;;;1.60;;
74227;SDS011;62587;52.352;5.006;2023-02-28T05:44:31;4.47;;;2.03;;
74227;SDS011;62587;52.352;5.006;2023-02-28T05:46:56;3.17;;;1.90;;
74227;SDS011;62587;52.352;5.006;2023-02-28T05:49:22;4.03;;;1.90;;
74227;SDS011;62587;52.352;5.006;2023-02-28T05:51:47;3.17;;;2.13;;
74227;SDS011;62587;52.352;5.006;2023-02-28T05:54:12;3.33;;;2.13;;
74227;SDS011;62587;52.352;5.006;2023-02-28T05:56:38;5.13;;;2.30;;
74227;SDS011;62587;52.352;5.006;2023-02-28T05:59:05;3.53;;;1.88;;
74227;SDS011;62587;52.352;5.006;2023-02-28T06:03:58;3.95;;;2.47;;
74227;SDS011;62587;52.352;5.006;2023-02-28T06:06:25;2.88;;;2.22;;
74227;SDS011;62587;52.352;5.006;2023-02-28T06:08:50;3.33;;;2.20;;
74227;SDS011;62587;52.352;5.006;2023-02-28T06:11:15;3.30;;;2.40;;
74227;SDS011;62587;52.352;5.006;2023-02-28T06:13:41;4.00;;;2.40;;
74227;SDS011;62587;52.352;5.006;2023-02-28T06:16:07;3.05;;;2.40;;
74227;SDS011;62587;52.352;5.006;2023-02-28T06:18:35;3.53;;;2.53;;
74227;SDS011;62587;52.352;5.006;2023-02-28T06:21:00;3.72;;;2.38;;
74227;SDS011;62587;52.352;5.006;2023-02-28T06:23:25;3.63;;;2.60;;
74227;SDS011;62587;52.352;5.006;2023-02-28T06:25:51;3.42;;;2.70;;
74227;SDS011;62587;52.352;5.006;2023-02-28T06:28:18;4.40;;;2.83;;
74227;SDS011;62587;52.352;5.006;2023-02-28T06:30:43;4.22;;;3.00;;
74227;SDS011;62587;52.352;5.006;2023-02-28T06:33:08;3.87;;;2.70;;
74227;SDS011;62587;52.352;5.006;2023-02-28T06:35:34;3.75;;;3.13;;
74227;SDS011;62587;52.352;5.006;2023-02-28T06:37:59;4.93;;;2.75;;
74227;SDS011;62587;52.352;5.006;2023-02-28T06:40:24;3.90;;;2.80;;
74227;SDS011;62587;52.352;5.006;2023-02-28T06:42:50;4.07;;;2.58;;
74227;SDS011;62587;52.352;5.006;2023-02-28T06:45:15;3.07;;;2.73;;
74227;SDS011;62587;52.352;5.006;2023-02-28T06:47:41;4.13;;;2.90;;
74227;SDS011;62587;52.352;5.006;2023-02-28T06:50:07;3.78;;;2.80;;
74227;SDS011;62587;52.352;5.006;2023-02-28T06:52:35;3.65;;;2.70;;
74227;SDS011;62587;52.352;5.006;2023-02-28T06:55:04;4.28;;;2.72;;
74227;SDS011;62587;52.352;5.006;2023-02-28T06:57:30;3.10;;;2.35;;
74227;SDS011;62587;52.352;5.006;2023-02-28T07:00:00;3.05;;;2.40;;
74227;SDS011;62587;52.352;5.006;2023-02-28T07:02:28;3.03;;;2.60;;
74227;SDS011;62587;52.352;5.006;2023-02-28T07:04:53;2.90;;;2.30;;
74227;SDS011;62587;52.352;5.006;2023-02-28T07:07:18;2.55;;;2.10;;
74227;SDS011;62587;52.352;5.006;2023-02-28T07:09:44;3.60;;;2.25;;
74227;SDS011;62587;52.352;5.006;2023-02-28T07:12:10;2.83;;;2.50;;
74227;SDS011;62587;52.352;5.006;2023-02-28T07:14:36;2.42;;;2.10;;
74227;SDS011;62587;52.352;5.006;2023-02-28T07:17:01;3.42;;;2.80;;
74227;SDS011;62587;52.352;5.006;2023-02-28T07:19:27;3.50;;;2.70;;
74227;SDS011;62587;52.352;5.006;2023-02-28T07:21:53;3.10;;;1.90;;
74227;SDS011;62587;52.352;5.006;2023-02-28T07:24:18;2.28;;;1.90;;
74227;SDS011;62587;52.352;5.006;2023-02-28T07:26:44;2.70;;;2.03;;
74227;SDS011;62587;52.352;5.006;2023-02-28T07:29:09;2.10;;;1.73;;
74227;SDS011;62587;52.352;5.006;2023-02-28T07:31:35;3.05;;;1.80;;
74227;SDS011;62587;52.352;5.006;2023-02-28T07:34:00;3.40;;;1.80;;
74227;SDS011;62587;52.352;5.006;2023-02-28T07:36:25;2.63;;;1.40;;
74227;SDS011;62587;52.352;5.006;2023-02-28T07:38:51;2.70;;;1.42;;
74227;SDS011;62587;52.352;5.006;2023-02-28T07:41:17;3.17;;;1.85;;
74227;SDS011;62587;52.352;5.006;2023-02-28T07:43:44;2.72;;;2.03;;
74227;SDS011;62587;52.352;5.006;2023-02-28T07:46:11;2.65;;;1.50;;
74227;SDS011;62587;52.352;5.006;2023-02-28T07:48:40;2.53;;;1.60;;
74227;SDS011;62587;52.352;5.006;2023-02-28T07:51:06;2.70;;;1.33;;
74227;SDS011;62587;52.352;5.006;2023-02-28T07:53:32;1.98;;;1.70;;
74227;SDS011;62587;52.352;5.006;2023-02-28T07:55:57;2.70;;;1.70;;
74227;SDS011;62587;52.352;5.006;2023-02-28T07:58:24;3.33;;;1.35;;
74227;SDS011;62587;52.352;5.006;2023-02-28T08:00:50;1.80;;;1.30;;
74227;SDS011;62587;52.352;5.006;2023-02-28T08:03:17;2.78;;;1.70;;
74227;SDS011;62587;52.352;5.006;2023-02-28T08:05:43;2.13;;;1.60;;
74227;SDS011;62587;52.352;5.006;2023-02-28T08:08:10;7.93;;;1.85;;
74227;SDS011;62587;52.352;5.006;2023-02-28T08:10:35;2.63;;;1.50;;
74227;SDS011;62587;52.352;5.006;2023-02-28T08:13:01;1.92;;;1.40;;
74227;SDS011;62587;52.352;5.006;2023-02-28T08:15:29;2.55;;;1.55;;
74227;SDS011;62587;52.352;5.006;2023-02-28T08:17:54;4.10;;;1.73;;
74227;SDS011;62587;52.352;5.006;2023-02-28T08:20:21;2.83;;;1.30;;
74227;SDS011;62587;52.352;5.006;2023-02-28T08:22:47;2.10;;;1.40;;
74227;SDS011;62587;52.352;5.006;2023-02-28T08:25:13;2.55;;;1.50;;
74227;SDS011;62587;52.352;5.006;2023-02-28T08:27:38;4.25;;;1.52;;
74227;SDS011;62587;52.352;5.006;2023-02-28T08:30:04;2.70;;;1.80;;
74227;SDS011;62587;52.352;5.006;2023-02-28T08:32:31;2.40;;;1.27;;
74227;SDS011;62587;52.352;5.006;2023-02-28T08:34:57;2.33;;;1.70;;
74227;SDS011;62587;52.352;5.006;2023-02-28T08:37:22;4.90;;;1.60;;
74227;SDS011;62587;52.352;5.006;2023-02-28T08:39:48;2.55;;;1.63;;
74227;SDS011;62587;52.352;5.006;2023-02-28T08:42:13;2.55;;;1.73;;
74227;SDS011;62587;52.352;5.006;2023-02-28T08:44:39;1.90;;;1.27;;
74227;SDS011;62587;52.352;5.006;2023-02-28T08:47:05;3.15;;;1.63;;
74227;SDS011;62587;52.352;5.006;2023-02-28T08:49:30;4.60;;;1.65;;
74227;SDS011;62587;52.352;5.006;2023-02-28T08:51:56;3.13;;;1.97;;
74227;SDS011;62587;52.352;5.006;2023-02-28T08:54:22;2.13;;;1.38;;
74227;SDS011;62587;52.352;5.006;2023-02-28T08:56:48;2.53;;;1.42;;
74227;SDS011;62587;52.352;5.006;2023-02-28T08:59:13;2.40;;;1.40;;
74227;SDS011;62587;52.352;5.006;2023-02-28T09:01:39;2.17;;;1.50;;
74227;SDS011;62587;52.352;5.006;2023-02-28T09:04:06;2.63;;;1.50;;
74227;SDS011;62587;52.352;5.006;2023-02-28T09:06:33;3.42;;;1.58;;
74227;SDS011;62587;52.352;5.006;2023-02-28T09:09:00;2.30;;;1.60;;
74227;SDS011;62587;52.352;5.006;2023-02-28T09:11:26;1.80;;;1.50;;
74227;SDS011;62587;52.352;5.006;2023-02-28T09:13:53;3.42;;;1.60;;
74227;SDS011;62587;52.352;5.006;2023-02-28T09:16:20;2.38;;;1.30;;
74227;SDS011;62587;52.352;5.006;2023-02-28T09:18:46;2.20;;;1.35;;
74227;SDS011;62587;52.352;5.006;2023-02-28T09:21:13;2.42;;;1.58;;
74227;SDS011;62587;52.352;5.006;2023-02-28T09:23:47;3.30;;;1.60;;
74227;SDS011;62587;52.352;5.006;2023-02-28T09:26:15;3.10;;;1.65;;
74227;SDS011;62587;52.352;5.006;2023-02-28T09:28:41;2.67;;;1.58;;
74227;SDS011;62587;52.352;5.006;2023-02-28T09:31:10;2.92;;;1.42;;
74227;SDS011;62587;52.352;5.006;2023-02-28T09:33:38;2.60;;;1.55;;
74227;SDS011;62587;52.352;5.006;2023-02-28T09:36:04;2.28;;;1.50;;
74227;SDS011;62587;52.352;5.006;2023-02-28T09:38:29;2.15;;;1.30;;
74227;SDS011;62587;52.352;5.006;2023-02-28T09:41:00;1.67;;;1.38;;
74227;SDS011;62587;52.352;5.006;2023-02-28T09:43:33;2.28;;;1.42;;
74227;SDS011;62587;52.352;5.006;2023-02-28T09:46:04;2.40;;;1.38;;
74227;SDS011;62587;52.352;5.006;2023-02-28T09:48:44;2.33;;;1.58;;
74227;SDS011;62587;52.352;5.006;2023-02-28T09:51:26;2.40;;;1.60;;
74227;SDS011;62587;52.352;5.006;2023-02-28T09:54:05;1.80;;;1.60;;
74227;SDS011;62587;52.352;5.006;2023-02-28T09:56:38;2.75;;;1.58;;
74227;SDS011;62587;52.352;5.006;2023-02-28T10:01:51;2.63;;;1.45;;
74227;SDS011;62587;52.352;5.006;2023-02-28T10:04:36;2.65;;;1.63;;
74227;SDS011;62587;52.352;5.006;2023-02-28T10:09:52;2.35;;;1.52;;
74227;SDS011;62587;52.352;5.006;2023-02-28T10:12:19;3.75;;;1.90;;
74227;SDS011;62587;52.352;5.006;2023-02-28T10:14:46;2.17;;;1.50;;
74227;SDS011;62587;52.352;5.006;2023-02-28T10:17:15;2.25;;;1.45;;
74227;SDS011;62587;52.352;5.006;2023-02-28T10:20:07;1.90;;;1.30;;
74227;SDS011;62587;52.352;5.006;2023-02-28T10:22:50;2.47;;;1.58;;
74227;SDS011;62587;52.352;5.006;2023-02-28T10:25:23;1.98;;;1.77;;
74227;SDS011;62587;52.352;5.006;2023-02-28T10:27:54;2.67;;;1.70;;
74227;SDS011;62587;52.352;5.006;2023-02-28T10:30:26;2.83;;;1.60;;
74227;SDS011;62587;52.352;5.006;2023-02-28T10:32:52;2.67;;;1.30;;
74227;SDS011;62587;52.352;5.006;2023-02-28T10:35:23;2.65;;;1.60;;
74227;SDS011;62587;52.352;5.006;2023-02-28T10:37:54;1.70;;;1.20;;
74227;SDS011;62587;52.352;5.006;2023-02-28T10:42:57;1.60;;;1.50;;
74227;SDS011;62587;52.352;5.006;2023-02-28T10:45:23;2.55;;;1.20;;
74227;SDS011;62587;52.352;5.006;2023-02-28T10:47:56;2.17;;;1.30;;
74227;SDS011;62587;52.352;5.006;2023-02-28T10:50:43;1.83;;;1.27;;
74227;SDS011;62587;52.352;5.006;2023-02-28T11:04:00;2.45;;;1.08;;
74227;SDS011;62587;52.352;5.006;2023-02-28T11:06:29;1.65;;;1.35;;
74227;SDS011;62587;52.352;5.006;2023-02-28T11:08:57;2.15;;;1.30;;
74227;SDS011;62587;52.352;5.006;2023-02-28T11:11:26;1.63;;;1.10;;
74227;SDS011;62587;52.352;5.006;2023-02-28T11:13:55;2.95;;;1.38;;
74227;SDS011;62587;52.352;5.006;2023-02-28T11:16:34;2.15;;;1.15;;
74227;SDS011;62587;52.352;5.006;2023-02-28T11:19:03;1.75;;;1.10;;
74227;SDS011;62587;52.352;5.006;2023-02-28T11:21:35;2.00;;;1.17;;
74227;SDS011;62587;52.352;5.006;2023-02-28T11:26:49;2.15;;;1.00;;
74227;SDS011;62587;52.352;5.006;2023-02-28T11:29:22;2.03;;;1.20;;
74227;SDS011;62587;52.352;5.006;2023-02-28T11:32:02;2.15;;;1.20;;
74227;SDS011;62587;52.352;5.006;2023-02-28T11:34:31;2.70;;;1.23;;
74227;SDS011;62587;52.352;5.006;2023-02-28T11:36:57;1.92;;;1.23;;
74227;SDS011;62587;52.352;5.006;2023-02-28T11:39:25;1.63;;;1.10;;
74227;SDS011;62587;52.352;5.006;2023-02-28T11:59:01;1.67;;;1.00;;
74227;SDS011;62587;52.352;5.006;2023-02-28T12:04:58;2.25;;;1.40;;
74227;SDS011;62587;52.352;5.006;2023-02-28T12:27:16;1.92;;;1.30;;
74227;SDS011;62587;52.352;5.006;2023-02-28T12:29:54;2.35;;;1.45;;
74227;SDS011;62587;52.352;5.006;2023-02-28T12:32:26;1.65;;;1.20;;
74227;SDS011;62587;52.352;5.006;2023-02-28T12:37:41;1.98;;;1.60;;
74227;SDS011;62587;52.352;5.006;2023-02-28T12:40:12;1.92;;;1.40;;
74227;SDS011;62587;52.352;5.006;2023-02-28T12:42:45;2.17;;;1.40;;
74227;SDS011;62587;52.352;5.006;2023-02-28T12:45:24;1.83;;;1.42;;
74227;SDS011;62587;52.352;5.006;2023-02-28T12:48:02;1.90;;;1.60;;
74227;SDS011;62587;52.352;5.006;2023-02-28T12:50:30;2.40;;;1.40;;
74227;SDS011;62587;52.352;5.006;2023-02-28T12:53:00;1.50;;;1.10;;
74227;SDS011;62587;52.352;5.006;2023-02-28T12:55:40;1.70;;;1.38;;
74227;SDS011;62587;52.352;5.006;2023-02-28T12:58:48;1.42;;;1.10;;
74227;SDS011;62587;52.352;5.006;2023-02-28T13:11:42;1.65;;;1.38;;
74227;SDS011;62587;52.352;5.006;2023-02-28T13:14:28;2.20;;;1.30;;
74227;SDS011;62587;52.352;5.006;2023-02-28T13:17:02;1.58;;;1.17;;
74227;SDS011;62587;52.352;5.006;2023-02-28T13:19:45;2.10;;;1.40;;
74227;SDS011;62587;52.352;5.006;2023-02-28T13:24:53;2.35;;;1.30;;
74227;SDS011;62587;52.352;5.006;2023-02-28T13:27:21;2.13;;;1.50;;
74227;SDS011;62587;52.352;5.006;2023-02-28T13:29:50;1.55;;;1.17;;
74227;SDS011;62587;52.352;5.006;2023-02-28T13:42:50;1.52;;;1.20;;
74227;SDS011;62587;52.352;5.006;2023-02-28T13:45:21;1.85;;;1.50;;
74227;SDS011;62587;52.352;5.006;2023-02-28T13:48:22;2.15;;;1.20;;
74227;SDS011;62587;52.352;5.006;2023-02-28T13:50:42;2.03;;;1.63;;
74227;SDS011;62587;52.352;5.006;2023-02-28T13:55:44;1.85;;;1.40;;
74227;SDS011;62587;52.352;5.006;2023-02-28T13:58:26;1.85;;;1.52;;
74227;SDS011;62587;52.352;5.006;2023-02-28T14:03:25;2.03;;;1.40;;
74227;SDS011;62587;52.352;5.006;2023-02-28T14:11:39;1.85;;;1.65;;
74227;SDS011;62587;52.352;5.006;2023-02-28T14:14:07;2.33;;;1.63;;
74227;SDS011;62587;52.352;5.006;2023-02-28T14:16:52;2.35;;;1.50;;
74227;SDS011;62587;52.352;5.006;2023-02-28T14:19:22;1.85;;;1.48;;
74227;SDS011;62587;52.352;5.006;2023-02-28T14:25:00;2.38;;;1.85;;
74227;SDS011;62587;52.352;5.006;2023-02-28T14:27:40;1.77;;;1.67;;
74227;SDS011;62587;52.352;5.006;2023-02-28T14:32:53;2.17;;;1.23;;
74227;SDS011;62587;52.352;5.006;2023-02-28T14:38:30;1.83;;;1.27;;
74227;SDS011;62587;52.352;5.006;2023-02-28T14:41:00;2.60;;;1.88;;
74227;SDS011;62587;52.352;5.006;2023-02-28T14:43:31;1.95;;;1.30;;
74227;SDS011;62587;52.352;5.006;2023-02-28T14:45:58;2.33;;;1.42;;
74227;SDS011;62587;52.352;5.006;2023-02-28T14:53:22;1.77;;;1.33;;
74227;SDS011;62587;52.352;5.006;2023-02-28T14:55:50;1.95;;;1.45;;
74227;SDS011;62587;52.352;5.006;2023-02-28T14:58:25;2.10;;;1.45;;
74227;SDS011;62587;52.352;5.006;2023-02-28T15:00:54;2.35;;;1.20;;
74227;SDS011;62587;52.352;5.006;2023-02-28T15:05:56;2.05;;;1.40;;
74227;SDS011;62587;52.352;5.006;2023-02-28T15:08:23;1.95;;;1.33;;
74227;SDS011;62587;52.352;5.006;2023-02-28T15:10:56;2.13;;;1.50;;
74227;SDS011;62587;52.352;5.006;2023-02-28T15:13:33;2.65;;;1.50;;
74227;SDS011;62587;52.352;5.006;2023-02-28T15:16:25;2.30;;;1.42;;
74227;SDS011;62587;52.352;5.006;2023-02-28T15:19:00;2.25;;;1.40;;
74227;SDS011;62587;52.352;5.006;2023-02-28T15:21:32;3.25;;;1.63;;
74227;SDS011;62587;52.352;5.006;2023-02-28T15:26:39;2.00;;;1.38;;
74227;SDS011;62587;52.352;5.006;2023-02-28T15:29:19;1.85;;;1.33;;
74227;SDS011;62587;52.352;5.006;2023-02-28T15:31:48;2.03;;;1.80;;
74227;SDS011;62587;52.352;5.006;2023-02-28T15:34:41;1.80;;;1.70;;
74227;SDS011;62587;52.352;5.006;2023-02-28T15:40:16;2.05;;;1.48;;
74227;SDS011;62587;52.352;5.006;2023-02-28T15:45:34;1.95;;;1.58;;
74227;SDS011;62587;52.352;5.006;2023-02-28T15:48:13;1.80;;;1.40;;
74227;SDS011;62587;52.352;5.006;2023-02-28T15:50:46;2.05;;;1.20;;
74227;SDS011;62587;52.352;5.006;2023-02-28T15:53:17;1.73;;;1.60;;
74227;SDS011;62587;52.352;5.006;2023-02-28T15:55:52;1.50;;;1.10;;
74227;SDS011;62587;52.352;5.006;2023-02-28T15:58:19;1.50;;;1.05;;
74227;SDS011;62587;52.352;5.006;2023-02-28T16:00:59;2.75;;;1.70;;
74227;SDS011;62587;52.352;5.006;2023-02-28T16:03:35;2.80;;;1.40;;
74227;SDS011;62587;52.352;5.006;2023-02-28T16:08:41;1.75;;;1.40;;
74227;SDS011;62587;52.352;5.006;2023-02-28T16:11:08;1.90;;;1.15;;
74227;SDS011;62587;52.352;5.006;2023-02-28T16:13:35;2.03;;;1.30;;
74227;SDS011;62587;52.352;5.006;2023-02-28T16:16:00;1.98;;;1.20;;
74227;SDS011;62587;52.352;5.006;2023-02-28T16:18:26;1.58;;;1.20;;
74227;SDS011;62587;52.352;5.006;2023-02-28T16:20:52;1.55;;;1.30;;
74227;SDS011;62587;52.352;5.006;2023-02-28T16:23:17;1.90;;;1.30;;
74227;SDS011;62587;52.352;5.006;2023-02-28T16:25:42;1.90;;;1.33;;
74227;SDS011;62587;52.352;5.006;2023-02-28T16:28:33;2.03;;;1.52;;
74227;SDS011;62587;52.352;5.006;2023-02-28T16:30:59;1.92;;;1.13;;
74227;SDS011;62587;52.352;5.006;2023-02-28T16:33:27;1.52;;;1.42;;
74227;SDS011;62587;52.352;5.006;2023-02-28T16:35:52;2.03;;;1.52;;
74227;SDS011;62587;52.352;5.006;2023-02-28T16:38:18;2.37;;;1.37;;
74227;SDS011;62587;52.352;5.006;2023-02-28T16:40:43;2.00;;;1.25;;
74227;SDS011;62587;52.352;5.006;2023-02-28T16:43:14;1.75;;;1.30;;
74227;SDS011;62587;52.352;5.006;2023-02-28T16:45:42;1.42;;;1.23;;
74227;SDS011;62587;52.352;5.006;2023-02-28T16:48:11;2.70;;;1.30;;
74227;SDS011;62587;52.352;5.006;2023-02-28T16:50:38;1.38;;;1.25;;
74227;SDS011;62587;52.352;5.006;2023-02-28T16:53:04;2.20;;;1.50;;
74227;SDS011;62587;52.352;5.006;2023-02-28T16:55:29;1.50;;;1.20;;
74227;SDS011;62587;52.352;5.006;2023-02-28T16:57:58;2.15;;;1.38;;
74227;SDS011;62587;52.352;5.006;2023-02-28T17:00:25;2.50;;;1.30;;
74227;SDS011;62587;52.352;5.006;2023-02-28T17:02:52;1.77;;;1.48;;
74227;SDS011;62587;52.352;5.006;2023-02-28T17:05:18;2.13;;;1.38;;
74227;SDS011;62587;52.352;5.006;2023-02-28T17:07:45;2.25;;;1.30;;
74227;SDS011;62587;52.352;5.006;2023-02-28T17:10:17;1.95;;;1.40;;
74227;SDS011;62587;52.352;5.006;2023-02-28T17:12:45;1.85;;;1.42;;
74227;SDS011;62587;52.352;5.006;2023-02-28T17:15:11;2.15;;;1.58;;
74227;SDS011;62587;52.352;5.006;2023-02-28T17:17:38;2.30;;;1.60;;
74227;SDS011;62587;52.352;5.006;2023-02-28T17:20:04;2.30;;;1.50;;
74227;SDS011;62587;52.352;5.006;2023-02-28T17:22:30;2.00;;;1.58;;
74227;SDS011;62587;52.352;5.006;2023-02-28T17:24:56;2.25;;;1.35;;
74227;SDS011;62587;52.352;5.006;2023-02-28T17:27:22;2.97;;;1.70;;
74227;SDS011;62587;52.352;5.006;2023-02-28T17:29:48;2.60;;;1.50;;
74227;SDS011;62587;52.352;5.006;2023-02-28T17:32:13;2.45;;;1.63;;
74227;SDS011;62587;52.352;5.006;2023-02-28T17:34:38;2.33;;;1.70;;
74227;SDS011;62587;52.352;5.006;2023-02-28T17:37:04;2.77;;;1.93;;
74227;SDS011;62587;52.352;5.006;2023-02-28T17:39:29;2.53;;;1.60;;
74227;SDS011;62587;52.352;5.006;2023-02-28T17:41:56;2.88;;;1.80;;
74227;SDS011;62587;52.352;5.006;2023-02-28T17:44:22;2.55;;;1.63;;
74227;SDS011;62587;52.352;5.006;2023-02-28T17:46:51;2.00;;;1.63;;
74227;SDS011;62587;52.352;5.006;2023-02-28T17:49:19;3.05;;;2.08;;
74227;SDS011;62587;52.352;5.006;2023-02-28T17:51:45;2.47;;;1.83;;
74227;SDS011;62587;52.352;5.006;2023-02-28T17:54:11;2.17;;;1.80;;
74227;SDS011;62587;52.352;5.006;2023-02-28T17:56:36;2.08;;;1.88;;